sensor_id;sensor_type;location;lat;lon;timestamp;P1;durP1;ratioP1;P2;durP2;ratioP2
40993;SDS011;26722;43.212;27.932;2023-09-18T00:00:42;7.30;;;4.25;;
40993;SDS011;26722;43.212;27.932;2023-09-18T00:03:10;6.25;;;3.95;;
40993;SDS011;26722;43.212;27.932;2023-09-18T00:05:35;6.47;;;4.13;;
40993;SDS011;26722;43.212;27.932;2023-09-18T00:08:01;8.90;;;4.63;;
40993;SDS011;26722;43.212;27.932;2023-09-18T00:10:29;8.23;;;4.20;;
40993;SDS011;26722;43.212;27.932;2023-09-18T00:12:55;8.88;;;4.35;;
40993;SDS011;26722;43.212;27.932;2023-09-18T00:15:21;8.63;;;4.88;;
40993;SDS011;26722;43.212;27.932;2023-09-18T00:17:47;6.38;;;4.35;;
40993;SDS011;26722;43.212;27.932;2023-09-18T00:20:12;5.90;;;4.28;;
40993;SDS011;26722;43.212;27.932;2023-09-18T00:22:38;6.45;;;4.45;;
40993;SDS011;26722;43.212;27.932;2023-09-18T00:25:04;7.60;;;5.05;;
40993;SDS011;26722;43.212;27.932;2023-09-18T00:27:30;9.88;;;4.70;;
40993;SDS011;26722;43.212;27.932;2023-09-18T00:29:55;5.82;;;4.38;;
40993;SDS011;26722;43.212;27.932;2023-09-18T00:32:21;11.73;;;4.47;;
40993;SDS011;26722;43.212;27.932;2023-09-18T00:34:46;7.40;;;4.03;;
40993;SDS011;26722;43.212;27.932;2023-09-18T00:37:12;7.00;;;4.57;;
40993;SDS011;26722;43.212;27.932;2023-09-18T00:39:38;7.70;;;4.97;;
40993;SDS011;26722;43.212;27.932;2023-09-18T00:42:03;11.30;;;4.70;;
40993;SDS011;26722;43.212;27.932;2023-09-18T00:44:29;9.65;;;5.10;;
40993;SDS011;26722;43.212;27.932;2023-09-18T00:46:54;8.48;;;4.60;;
40993;SDS011;26722;43.212;27.932;2023-09-18T00:49:20;10.90;;;4.68;;
40993;SDS011;26722;43.212;27.932;2023-09-18T00:51:47;6.43;;;4.85;;
40993;SDS011;26722;43.212;27.932;2023-09-18T00:54:14;8.55;;;5.22;;
40993;SDS011;26722;43.212;27.932;2023-09-18T00:56:43;8.43;;;4.93;;
40993;SDS011;26722;43.212;27.932;2023-09-18T00:59:10;6.97;;;4.70;;
40993;SDS011;26722;43.212;27.932;2023-09-18T01:01:36;9.32;;;4.78;;
40993;SDS011;26722;43.212;27.932;2023-09-18T01:04:03;7.07;;;5.00;;
40993;SDS011;26722;43.212;27.932;2023-09-18T01:06:29;8.65;;;4.75;;
40993;SDS011;26722;43.212;27.932;2023-09-18T01:08:55;10.75;;;5.25;;
40993;SDS011;26722;43.212;27.932;2023-09-18T01:17:04;7.88;;;4.78;;
40993;SDS011;26722;43.212;27.932;2023-09-18T01:22:06;10.70;;;4.57;;
40993;SDS011;26722;43.212;27.932;2023-09-18T01:24:33;7.72;;;5.05;;
40993;SDS011;26722;43.212;27.932;2023-09-18T01:26:59;7.97;;;4.93;;
40993;SDS011;26722;43.212;27.932;2023-09-18T01:29:24;10.52;;;5.18;;
40993;SDS011;26722;43.212;27.932;2023-09-18T01:31:50;6.78;;;5.30;;
40993;SDS011;26722;43.212;27.932;2023-09-18T01:34:18;10.00;;;5.65;;
40993;SDS011;26722;43.212;27.932;2023-09-18T01:36:44;8.07;;;5.10;;
40993;SDS011;26722;43.212;27.932;2023-09-18T01:39:11;7.00;;;4.82;;
40993;SDS011;26722;43.212;27.932;2023-09-18T01:41:38;10.32;;;5.20;;
40993;SDS011;26722;43.212;27.932;2023-09-18T01:44:04;11.98;;;5.55;;
40993;SDS011;26722;43.212;27.932;2023-09-18T01:46:30;7.55;;;5.32;;
40993;SDS011;26722;43.212;27.932;2023-09-18T01:49:01;7.95;;;4.65;;
40993;SDS011;26722;43.212;27.932;2023-09-18T01:51:27;8.02;;;4.80;;
40993;SDS011;26722;43.212;27.932;2023-09-18T01:53:53;9.88;;;5.35;;
40993;SDS011;26722;43.212;27.932;2023-09-18T01:56:20;9.68;;;5.13;;
40993;SDS011;26722;43.212;27.932;2023-09-18T01:58:45;8.38;;;5.60;;
40993;SDS011;26722;43.212;27.932;2023-09-18T02:01:11;11.38;;;5.28;;
40993;SDS011;26722;43.212;27.932;2023-09-18T02:03:36;10.80;;;5.75;;
40993;SDS011;26722;43.212;27.932;2023-09-18T02:06:06;8.93;;;4.80;;
40993;SDS011;26722;43.212;27.932;2023-09-18T02:08:33;8.00;;;5.22;;
40993;SDS011;26722;43.212;27.932;2023-09-18T02:10:59;9.68;;;5.38;;
40993;SDS011;26722;43.212;27.932;2023-09-18T02:13:24;8.05;;;5.35;;
40993;SDS011;26722;43.212;27.932;2023-09-18T02:15:50;8.20;;;5.22;;
40993;SDS011;26722;43.212;27.932;2023-09-18T02:18:15;11.00;;;5.85;;
40993;SDS011;26722;43.212;27.932;2023-09-18T02:20:41;9.85;;;5.53;;
40993;SDS011;26722;43.212;27.932;2023-09-18T02:23:07;10.40;;;5.80;;
40993;SDS011;26722;43.212;27.932;2023-09-18T02:25:32;16.08;;;5.88;;
40993;SDS011;26722;43.212;27.932;2023-09-18T02:27:58;8.02;;;5.60;;
40993;SDS011;26722;43.212;27.932;2023-09-18T02:30:23;8.70;;;4.85;;
40993;SDS011;26722;43.212;27.932;2023-09-18T02:32:49;9.85;;;5.40;;
40993;SDS011;26722;43.212;27.932;2023-09-18T02:35:14;11.45;;;6.05;;
40993;SDS011;26722;43.212;27.932;2023-09-18T02:37:40;13.23;;;5.75;;
40993;SDS011;26722;43.212;27.932;2023-09-18T02:40:05;8.05;;;5.40;;
40993;SDS011;26722;43.212;27.932;2023-09-18T02:42:32;10.25;;;5.50;;
40993;SDS011;26722;43.212;27.932;2023-09-18T02:44:58;9.98;;;5.78;;
40993;SDS011;26722;43.212;27.932;2023-09-18T02:47:23;9.32;;;5.90;;
40993;SDS011;26722;43.212;27.932;2023-09-18T02:49:49;10.13;;;5.63;;
40993;SDS011;26722;43.212;27.932;2023-09-18T02:52:14;10.30;;;5.80;;
40993;SDS011;26722;43.212;27.932;2023-09-18T02:54:40;8.38;;;5.43;;
40993;SDS011;26722;43.212;27.932;2023-09-18T02:57:05;8.57;;;5.45;;
40993;SDS011;26722;43.212;27.932;2023-09-18T02:59:30;9.68;;;5.45;;
40993;SDS011;26722;43.212;27.932;2023-09-18T03:01:57;9.30;;;5.65;;
40993;SDS011;26722;43.212;27.932;2023-09-18T03:04:22;13.30;;;6.00;;
40993;SDS011;26722;43.212;27.932;2023-09-18T03:06:48;12.48;;;6.05;;
40993;SDS011;26722;43.212;27.932;2023-09-18T03:09:14;11.80;;;5.93;;
40993;SDS011;26722;43.212;27.932;2023-09-18T03:11:41;9.23;;;5.72;;
40993;SDS011;26722;43.212;27.932;2023-09-18T03:14:06;13.32;;;6.15;;
40993;SDS011;26722;43.212;27.932;2023-09-18T03:16:32;10.32;;;5.80;;
40993;SDS011;26722;43.212;27.932;2023-09-18T03:18:58;9.13;;;6.03;;
40993;SDS011;26722;43.212;27.932;2023-09-18T03:21:23;13.00;;;6.03;;
40993;SDS011;26722;43.212;27.932;2023-09-18T03:23:49;11.90;;;6.07;;
40993;SDS011;26722;43.212;27.932;2023-09-18T03:26:15;12.98;;;5.50;;
40993;SDS011;26722;43.212;27.932;2023-09-18T03:28:40;11.02;;;6.05;;
40993;SDS011;26722;43.212;27.932;2023-09-18T03:31:06;9.82;;;6.03;;
40993;SDS011;26722;43.212;27.932;2023-09-18T03:33:32;12.35;;;6.55;;
40993;SDS011;26722;43.212;27.932;2023-09-18T03:35:57;9.30;;;5.88;;
40993;SDS011;26722;43.212;27.932;2023-09-18T03:38:23;12.20;;;5.93;;
40993;SDS011;26722;43.212;27.932;2023-09-18T03:40:49;11.82;;;6.18;;
40993;SDS011;26722;43.212;27.932;2023-09-18T03:43:15;9.13;;;5.93;;
40993;SDS011;26722;43.212;27.932;2023-09-18T03:45:42;10.38;;;6.30;;
40993;SDS011;26722;43.212;27.932;2023-09-18T03:48:07;10.23;;;6.25;;
40993;SDS011;26722;43.212;27.932;2023-09-18T03:50:33;9.18;;;6.00;;
40993;SDS011;26722;43.212;27.932;2023-09-18T03:52:58;8.85;;;5.60;;
40993;SDS011;26722;43.212;27.932;2023-09-18T03:55:24;9.18;;;6.10;;
40993;SDS011;26722;43.212;27.932;2023-09-18T03:57:49;10.95;;;6.35;;
40993;SDS011;26722;43.212;27.932;2023-09-18T04:00:17;9.38;;;6.25;;
40993;SDS011;26722;43.212;27.932;2023-09-18T04:02:42;10.27;;;6.68;;
40993;SDS011;26722;43.212;27.932;2023-09-18T04:05:08;9.95;;;6.28;;
40993;SDS011;26722;43.212;27.932;2023-09-18T04:07:34;10.05;;;6.05;;
40993;SDS011;26722;43.212;27.932;2023-09-18T04:10:00;13.10;;;7.00;;
40993;SDS011;26722;43.212;27.932;2023-09-18T04:12:25;14.75;;;6.03;;
40993;SDS011;26722;43.212;27.932;2023-09-18T04:14:51;10.65;;;5.78;;
40993;SDS011;26722;43.212;27.932;2023-09-18T04:17:17;12.68;;;6.53;;
40993;SDS011;26722;43.212;27.932;2023-09-18T04:19:42;10.80;;;6.35;;
40993;SDS011;26722;43.212;27.932;2023-09-18T04:22:09;9.15;;;6.25;;
40993;SDS011;26722;43.212;27.932;2023-09-18T04:24:34;12.25;;;6.55;;
40993;SDS011;26722;43.212;27.932;2023-09-18T04:26:59;12.98;;;6.68;;
40993;SDS011;26722;43.212;27.932;2023-09-18T04:29:26;13.65;;;6.57;;
40993;SDS011;26722;43.212;27.932;2023-09-18T04:31:51;11.73;;;6.55;;
40993;SDS011;26722;43.212;27.932;2023-09-18T04:34:19;9.05;;;6.40;;
40993;SDS011;26722;43.212;27.932;2023-09-18T04:36:44;13.15;;;6.53;;
40993;SDS011;26722;43.212;27.932;2023-09-18T04:39:10;14.82;;;7.10;;
40993;SDS011;26722;43.212;27.932;2023-09-18T04:41:35;13.73;;;6.45;;
40993;SDS011;26722;43.212;27.932;2023-09-18T04:44:01;13.38;;;7.38;;
40993;SDS011;26722;43.212;27.932;2023-09-18T04:46:27;15.90;;;7.68;;
40993;SDS011;26722;43.212;27.932;2023-09-18T04:48:54;15.43;;;7.45;;
40993;SDS011;26722;43.212;27.932;2023-09-18T04:51:20;12.50;;;7.25;;
40993;SDS011;26722;43.212;27.932;2023-09-18T04:53:45;12.45;;;7.50;;
40993;SDS011;26722;43.212;27.932;2023-09-18T04:56:11;14.25;;;7.95;;
40993;SDS011;26722;43.212;27.932;2023-09-18T04:58:37;15.00;;;7.88;;
40993;SDS011;26722;43.212;27.932;2023-09-18T05:01:04;12.98;;;7.40;;
40993;SDS011;26722;43.212;27.932;2023-09-18T05:03:30;11.13;;;7.32;;
40993;SDS011;26722;43.212;27.932;2023-09-18T05:05:59;12.25;;;7.05;;
40993;SDS011;26722;43.212;27.932;2023-09-18T05:08:24;11.90;;;7.22;;
40993;SDS011;26722;43.212;27.932;2023-09-18T05:10:50;9.45;;;6.60;;
40993;SDS011;26722;43.212;27.932;2023-09-18T05:13:15;12.93;;;7.60;;
40993;SDS011;26722;43.212;27.932;2023-09-18T05:15:41;10.43;;;6.90;;
40993;SDS011;26722;43.212;27.932;2023-09-18T05:18:06;11.88;;;7.60;;
40993;SDS011;26722;43.212;27.932;2023-09-18T05:20:34;15.90;;;7.05;;
40993;SDS011;26722;43.212;27.932;2023-09-18T05:23:00;12.13;;;6.90;;
40993;SDS011;26722;43.212;27.932;2023-09-18T05:25:27;13.55;;;7.07;;
40993;SDS011;26722;43.212;27.932;2023-09-18T05:27:57;13.95;;;7.95;;
40993;SDS011;26722;43.212;27.932;2023-09-18T05:30:42;13.25;;;6.90;;
40993;SDS011;26722;43.212;27.932;2023-09-18T05:33:08;14.00;;;6.93;;
40993;SDS011;26722;43.212;27.932;2023-09-18T05:35:34;11.73;;;7.53;;
40993;SDS011;26722;43.212;27.932;2023-09-18T05:38:02;12.75;;;6.95;;
40993;SDS011;26722;43.212;27.932;2023-09-18T05:40:30;12.30;;;6.63;;
40993;SDS011;26722;43.212;27.932;2023-09-18T05:42:56;12.35;;;6.40;;
40993;SDS011;26722;43.212;27.932;2023-09-18T05:45:22;13.20;;;6.68;;
40993;SDS011;26722;43.212;27.932;2023-09-18T05:47:48;7.55;;;5.80;;
40993;SDS011;26722;43.212;27.932;2023-09-18T05:50:15;12.38;;;6.60;;
40993;SDS011;26722;43.212;27.932;2023-09-18T05:52:41;10.77;;;6.40;;
40993;SDS011;26722;43.212;27.932;2023-09-18T05:55:10;9.60;;;5.85;;
40993;SDS011;26722;43.212;27.932;2023-09-18T05:57:36;12.80;;;6.57;;
40993;SDS011;26722;43.212;27.932;2023-09-18T06:00:02;11.20;;;6.25;;
40993;SDS011;26722;43.212;27.932;2023-09-18T06:02:28;9.23;;;5.82;;
40993;SDS011;26722;43.212;27.932;2023-09-18T06:04:54;9.55;;;5.90;;
40993;SDS011;26722;43.212;27.932;2023-09-18T06:07:22;14.50;;;6.25;;
40993;SDS011;26722;43.212;27.932;2023-09-18T06:09:49;10.48;;;6.07;;
40993;SDS011;26722;43.212;27.932;2023-09-18T06:12:14;8.40;;;5.07;;
40993;SDS011;26722;43.212;27.932;2023-09-18T08:13:43;12.65;;;4.60;;
40993;SDS011;26722;43.212;27.932;2023-09-18T08:16:08;9.38;;;4.00;;
40993;SDS011;26722;43.212;27.932;2023-09-18T08:18:34;11.38;;;4.30;;
40993;SDS011;26722;43.212;27.932;2023-09-18T08:21:00;8.20;;;3.92;;
40993;SDS011;26722;43.212;27.932;2023-09-18T08:23:26;14.45;;;4.18;;
40993;SDS011;26722;43.212;27.932;2023-09-18T08:25:51;9.77;;;3.63;;
40993;SDS011;26722;43.212;27.932;2023-09-18T08:28:20;7.13;;;3.30;;
40993;SDS011;26722;43.212;27.932;2023-09-18T08:30:46;8.48;;;3.50;;
40993;SDS011;26722;43.212;27.932;2023-09-18T08:33:13;7.00;;;3.40;;
40993;SDS011;26722;43.212;27.932;2023-09-18T08:35:38;10.75;;;4.28;;
40993;SDS011;26722;43.212;27.932;2023-09-18T08:38:04;15.77;;;4.35;;
40993;SDS011;26722;43.212;27.932;2023-09-18T08:40:30;6.88;;;4.32;;
40993;SDS011;26722;43.212;27.932;2023-09-18T08:42:56;8.05;;;4.00;;
40993;SDS011;26722;43.212;27.932;2023-09-18T08:45:31;11.18;;;4.13;;
40993;SDS011;26722;43.212;27.932;2023-09-18T08:48:03;8.13;;;4.05;;
40993;SDS011;26722;43.212;27.932;2023-09-18T08:50:29;7.03;;;3.75;;
40993;SDS011;26722;43.212;27.932;2023-09-18T08:52:55;8.32;;;4.20;;
40993;SDS011;26722;43.212;27.932;2023-09-18T08:55:21;10.07;;;4.47;;
40993;SDS011;26722;43.212;27.932;2023-09-18T08:57:48;6.20;;;4.30;;
40993;SDS011;26722;43.212;27.932;2023-09-18T09:00:15;8.00;;;4.47;;
40993;SDS011;26722;43.212;27.932;2023-09-18T09:02:44;11.40;;;4.22;;
40993;SDS011;26722;43.212;27.932;2023-09-18T09:05:09;9.57;;;3.85;;
40993;SDS011;26722;43.212;27.932;2023-09-18T09:07:35;6.90;;;3.88;;
40993;SDS011;26722;43.212;27.932;2023-09-18T09:10:00;10.43;;;4.32;;
40993;SDS011;26722;43.212;27.932;2023-09-18T09:15:14;11.57;;;3.95;;
40993;SDS011;26722;43.212;27.932;2023-09-18T09:17:41;7.97;;;4.03;;
40993;SDS011;26722;43.212;27.932;2023-09-18T09:20:08;6.80;;;3.80;;
40993;SDS011;26722;43.212;27.932;2023-09-18T09:22:38;8.27;;;4.15;;
40993;SDS011;26722;43.212;27.932;2023-09-18T09:25:20;4.88;;;3.58;;
40993;SDS011;26722;43.212;27.932;2023-09-18T09:27:46;8.88;;;3.53;;
40993;SDS011;26722;43.212;27.932;2023-09-18T09:30:21;7.57;;;4.10;;
40993;SDS011;26722;43.212;27.932;2023-09-18T09:32:49;6.80;;;3.78;;
40993;SDS011;26722;43.212;27.932;2023-09-18T09:35:35;9.50;;;3.95;;
40993;SDS011;26722;43.212;27.932;2023-09-18T09:40:32;9.38;;;3.97;;
40993;SDS011;26722;43.212;27.932;2023-09-18T09:42:58;8.82;;;4.60;;
40993;SDS011;26722;43.212;27.932;2023-09-18T09:45:27;10.95;;;3.97;;
40993;SDS011;26722;43.212;27.932;2023-09-18T09:47:54;7.40;;;4.30;;
40993;SDS011;26722;43.212;27.932;2023-09-18T09:50:21;7.40;;;3.83;;
40993;SDS011;26722;43.212;27.932;2023-09-18T09:52:48;6.97;;;3.92;;
40993;SDS011;26722;43.212;27.932;2023-09-18T09:57:50;9.10;;;4.05;;
40993;SDS011;26722;43.212;27.932;2023-09-18T10:00:17;11.27;;;3.58;;
40993;SDS011;26722;43.212;27.932;2023-09-18T10:02:57;7.60;;;3.45;;
40993;SDS011;26722;43.212;27.932;2023-09-18T10:05:27;9.43;;;3.45;;
40993;SDS011;26722;43.212;27.932;2023-09-18T10:07:57;7.63;;;3.33;;
40993;SDS011;26722;43.212;27.932;2023-09-18T10:10:26;5.50;;;3.22;;
40993;SDS011;26722;43.212;27.932;2023-09-18T10:12:56;8.13;;;3.28;;
40993;SDS011;26722;43.212;27.932;2023-09-18T10:15:26;8.00;;;3.45;;
40993;SDS011;26722;43.212;27.932;2023-09-18T10:17:53;8.15;;;3.13;;
40993;SDS011;26722;43.212;27.932;2023-09-18T10:20:21;5.50;;;3.20;;
40993;SDS011;26722;43.212;27.932;2023-09-18T10:22:52;7.78;;;3.78;;
40993;SDS011;26722;43.212;27.932;2023-09-18T10:25:23;6.55;;;3.53;;
40993;SDS011;26722;43.212;27.932;2023-09-18T10:27:51;5.47;;;3.67;;
40993;SDS011;26722;43.212;27.932;2023-09-18T10:30:23;7.07;;;3.65;;
40993;SDS011;26722;43.212;27.932;2023-09-18T10:32:50;4.22;;;2.92;;
40993;SDS011;26722;43.212;27.932;2023-09-18T10:35:16;9.68;;;3.42;;
40993;SDS011;26722;43.212;27.932;2023-09-18T10:37:45;5.57;;;3.33;;
40993;SDS011;26722;43.212;27.932;2023-09-18T10:40:11;5.57;;;3.15;;
40993;SDS011;26722;43.212;27.932;2023-09-18T10:42:38;5.45;;;3.33;;
40993;SDS011;26722;43.212;27.932;2023-09-18T10:45:07;5.93;;;3.20;;
40993;SDS011;26722;43.212;27.932;2023-09-18T10:47:41;6.78;;;3.97;;
40993;SDS011;26722;43.212;27.932;2023-09-18T10:50:10;4.82;;;3.38;;
40993;SDS011;26722;43.212;27.932;2023-09-18T10:52:37;4.72;;;3.20;;
40993;SDS011;26722;43.212;27.932;2023-09-18T10:55:10;5.78;;;3.15;;
40993;SDS011;26722;43.212;27.932;2023-09-18T10:57:37;10.40;;;4.38;;
40993;SDS011;26722;43.212;27.932;2023-09-18T11:00:16;7.40;;;3.47;;
40993;SDS011;26722;43.212;27.932;2023-09-18T11:02:42;8.68;;;3.67;;
40993;SDS011;26722;43.212;27.932;2023-09-18T11:05:07;5.85;;;3.80;;
40993;SDS011;26722;43.212;27.932;2023-09-18T11:07:33;8.40;;;3.75;;
40993;SDS011;26722;43.212;27.932;2023-09-18T11:09:58;7.32;;;3.55;;
40993;SDS011;26722;43.212;27.932;2023-09-18T11:12:41;7.72;;;3.90;;
40993;SDS011;26722;43.212;27.932;2023-09-18T11:15:09;5.38;;;3.28;;
40993;SDS011;26722;43.212;27.932;2023-09-18T11:17:59;5.97;;;3.67;;
40993;SDS011;26722;43.212;27.932;2023-09-18T11:20:27;10.05;;;3.70;;
40993;SDS011;26722;43.212;27.932;2023-09-18T11:25:37;6.90;;;3.50;;
40993;SDS011;26722;43.212;27.932;2023-09-18T11:28:07;6.18;;;3.67;;
40993;SDS011;26722;43.212;27.932;2023-09-18T11:30:55;12.20;;;3.72;;
40993;SDS011;26722;43.212;27.932;2023-09-18T11:33:39;5.93;;;3.40;;
40993;SDS011;26722;43.212;27.932;2023-09-18T11:39:01;8.48;;;3.50;;
40993;SDS011;26722;43.212;27.932;2023-09-18T11:41:29;6.10;;;3.20;;
40993;SDS011;26722;43.212;27.932;2023-09-18T11:46:48;7.60;;;4.05;;
40993;SDS011;26722;43.212;27.932;2023-09-18T11:49:21;5.80;;;3.75;;
40993;SDS011;26722;43.212;27.932;2023-09-18T11:51:47;6.85;;;4.05;;
40993;SDS011;26722;43.212;27.932;2023-09-18T11:54:12;10.38;;;3.58;;
40993;SDS011;26722;43.212;27.932;2023-09-18T11:56:41;7.95;;;4.47;;
40993;SDS011;26722;43.212;27.932;2023-09-18T11:59:06;6.53;;;3.45;;
40993;SDS011;26722;43.212;27.932;2023-09-18T12:01:33;5.38;;;3.50;;
40993;SDS011;26722;43.212;27.932;2023-09-18T12:04:04;7.07;;;4.10;;
40993;SDS011;26722;43.212;27.932;2023-09-18T12:06:34;12.70;;;4.22;;
40993;SDS011;26722;43.212;27.932;2023-09-18T12:09:00;6.68;;;4.00;;
40993;SDS011;26722;43.212;27.932;2023-09-18T12:11:28;10.18;;;3.80;;
40993;SDS011;26722;43.212;27.932;2023-09-18T12:13:55;8.02;;;4.03;;
40993;SDS011;26722;43.212;27.932;2023-09-18T12:16:20;11.98;;;4.25;;
40993;SDS011;26722;43.212;27.932;2023-09-18T12:18:46;8.75;;;3.20;;
40993;SDS011;26722;43.212;27.932;2023-09-18T12:21:13;7.70;;;3.88;;
40993;SDS011;26722;43.212;27.932;2023-09-18T12:23:42;6.30;;;3.60;;
40993;SDS011;26722;43.212;27.932;2023-09-18T12:26:10;5.53;;;3.60;;
40993;SDS011;26722;43.212;27.932;2023-09-18T12:28:40;6.55;;;3.88;;
40993;SDS011;26722;43.212;27.932;2023-09-18T12:31:14;8.70;;;3.45;;
40993;SDS011;26722;43.212;27.932;2023-09-18T12:33:40;8.30;;;3.58;;
40993;SDS011;26722;43.212;27.932;2023-09-18T12:36:08;11.38;;;3.90;;
40993;SDS011;26722;43.212;27.932;2023-09-18T12:38:34;7.18;;;4.10;;
40993;SDS011;26722;43.212;27.932;2023-09-18T12:41:02;9.40;;;3.58;;
40993;SDS011;26722;43.212;27.932;2023-09-18T12:43:41;7.43;;;3.78;;
40993;SDS011;26722;43.212;27.932;2023-09-18T12:46:07;7.20;;;3.80;;
40993;SDS011;26722;43.212;27.932;2023-09-18T12:48:37;8.98;;;3.78;;
40993;SDS011;26722;43.212;27.932;2023-09-18T12:51:07;8.05;;;3.40;;
40993;SDS011;26722;43.212;27.932;2023-09-18T12:53:33;7.82;;;3.45;;
40993;SDS011;26722;43.212;27.932;2023-09-18T12:56:09;6.80;;;3.83;;
40993;SDS011;26722;43.212;27.932;2023-09-18T12:58:37;6.55;;;3.70;;
40993;SDS011;26722;43.212;27.932;2023-09-18T13:01:04;8.07;;;3.80;;
40993;SDS011;26722;43.212;27.932;2023-09-18T13:03:42;4.78;;;3.28;;
40993;SDS011;26722;43.212;27.932;2023-09-18T13:06:11;8.55;;;4.05;;
40993;SDS011;26722;43.212;27.932;2023-09-18T13:08:44;6.88;;;3.95;;
40993;SDS011;26722;43.212;27.932;2023-09-18T13:11:10;7.20;;;4.43;;
40993;SDS011;26722;43.212;27.932;2023-09-18T13:13:37;11.85;;;4.55;;
40993;SDS011;26722;43.212;27.932;2023-09-18T13:16:06;8.85;;;4.43;;
40993;SDS011;26722;43.212;27.932;2023-09-18T13:18:36;6.78;;;4.18;;
40993;SDS011;26722;43.212;27.932;2023-09-18T13:21:10;10.40;;;3.90;;
40993;SDS011;26722;43.212;27.932;2023-09-18T13:23:39;6.47;;;4.00;;
40993;SDS011;26722;43.212;27.932;2023-09-18T13:26:06;9.68;;;3.88;;
40993;SDS011;26722;43.212;27.932;2023-09-18T13:28:35;6.07;;;3.63;;
40993;SDS011;26722;43.212;27.932;2023-09-18T13:31:04;8.55;;;4.63;;
40993;SDS011;26722;43.212;27.932;2023-09-18T13:33:31;9.30;;;3.80;;
40993;SDS011;26722;43.212;27.932;2023-09-18T13:35:58;5.72;;;3.65;;
40993;SDS011;26722;43.212;27.932;2023-09-18T13:38:24;7.18;;;4.72;;
40993;SDS011;26722;43.212;27.932;2023-09-18T13:40:51;6.55;;;3.70;;
40993;SDS011;26722;43.212;27.932;2023-09-18T13:43:18;9.73;;;4.10;;
40993;SDS011;26722;43.212;27.932;2023-09-18T13:45:46;7.32;;;4.32;;
40993;SDS011;26722;43.212;27.932;2023-09-18T13:48:11;8.95;;;4.57;;
40993;SDS011;26722;43.212;27.932;2023-09-18T13:50:37;8.63;;;4.50;;
40993;SDS011;26722;43.212;27.932;2023-09-18T13:53:03;12.40;;;4.80;;
40993;SDS011;26722;43.212;27.932;2023-09-18T13:55:29;7.60;;;4.20;;
40993;SDS011;26722;43.212;27.932;2023-09-18T13:57:55;9.52;;;4.28;;
40993;SDS011;26722;43.212;27.932;2023-09-18T14:00:21;7.78;;;4.68;;
40993;SDS011;26722;43.212;27.932;2023-09-18T14:02:47;8.85;;;4.40;;
40993;SDS011;26722;43.212;27.932;2023-09-18T14:05:12;9.70;;;4.53;;
40993;SDS011;26722;43.212;27.932;2023-09-18T14:07:38;10.85;;;4.70;;
40993;SDS011;26722;43.212;27.932;2023-09-18T14:10:05;10.48;;;4.70;;
40993;SDS011;26722;43.212;27.932;2023-09-18T14:12:32;8.57;;;4.40;;
40993;SDS011;26722;43.212;27.932;2023-09-18T14:14:57;6.63;;;4.03;;
40993;SDS011;26722;43.212;27.932;2023-09-18T14:17:23;10.10;;;4.03;;
40993;SDS011;26722;43.212;27.932;2023-09-18T14:19:48;9.10;;;4.55;;
40993;SDS011;26722;43.212;27.932;2023-09-18T14:22:14;11.38;;;4.65;;
40993;SDS011;26722;43.212;27.932;2023-09-18T14:24:40;8.18;;;4.70;;
40993;SDS011;26722;43.212;27.932;2023-09-18T14:27:06;9.95;;;5.03;;
40993;SDS011;26722;43.212;27.932;2023-09-18T14:29:33;12.40;;;4.95;;
40993;SDS011;26722;43.212;27.932;2023-09-18T14:32:02;7.35;;;4.30;;
40993;SDS011;26722;43.212;27.932;2023-09-18T14:34:28;9.25;;;5.00;;
40993;SDS011;26722;43.212;27.932;2023-09-18T14:36:55;12.55;;;4.72;;
40993;SDS011;26722;43.212;27.932;2023-09-18T14:39:21;10.65;;;4.25;;
40993;SDS011;26722;43.212;27.932;2023-09-18T14:41:46;8.27;;;4.57;;
40993;SDS011;26722;43.212;27.932;2023-09-18T14:44:13;11.10;;;5.20;;
40993;SDS011;26722;43.212;27.932;2023-09-18T14:46:38;7.15;;;4.22;;
40993;SDS011;26722;43.212;27.932;2023-09-18T14:49:04;10.05;;;5.68;;
40993;SDS011;26722;43.212;27.932;2023-09-18T14:51:32;11.10;;;4.55;;
40993;SDS011;26722;43.212;27.932;2023-09-18T14:54:00;7.95;;;4.40;;
40993;SDS011;26722;43.212;27.932;2023-09-18T14:56:27;9.77;;;4.28;;
40993;SDS011;26722;43.212;27.932;2023-09-18T14:58:52;7.40;;;4.90;;
40993;SDS011;26722;43.212;27.932;2023-09-18T15:01:18;9.63;;;4.40;;
40993;SDS011;26722;43.212;27.932;2023-09-18T15:03:44;7.45;;;4.47;;
40993;SDS011;26722;43.212;27.932;2023-09-18T15:06:09;7.68;;;4.10;;
40993;SDS011;26722;43.212;27.932;2023-09-18T15:08:35;8.25;;;4.75;;
40993;SDS011;26722;43.212;27.932;2023-09-18T15:11:01;9.65;;;4.65;;
40993;SDS011;26722;43.212;27.932;2023-09-18T15:13:29;6.03;;;4.40;;
40993;SDS011;26722;43.212;27.932;2023-09-18T15:15:59;11.02;;;4.75;;
40993;SDS011;26722;43.212;27.932;2023-09-18T15:18:25;9.68;;;4.47;;
40993;SDS011;26722;43.212;27.932;2023-09-18T15:20:51;9.02;;;4.40;;
40993;SDS011;26722;43.212;27.932;2023-09-18T15:23:22;10.55;;;4.70;;
40993;SDS011;26722;43.212;27.932;2023-09-18T15:25:49;8.23;;;4.40;;
40993;SDS011;26722;43.212;27.932;2023-09-18T15:28:19;10.05;;;4.00;;
40993;SDS011;26722;43.212;27.932;2023-09-18T15:30:45;9.80;;;4.32;;
40993;SDS011;26722;43.212;27.932;2023-09-18T15:33:11;9.40;;;4.13;;
40993;SDS011;26722;43.212;27.932;2023-09-18T15:35:37;9.68;;;4.75;;
40993;SDS011;26722;43.212;27.932;2023-09-18T15:38:02;8.82;;;4.75;;
40993;SDS011;26722;43.212;27.932;2023-09-18T15:40:28;10.65;;;4.10;;
40993;SDS011;26722;43.212;27.932;2023-09-18T15:42:54;6.43;;;4.43;;
40993;SDS011;26722;43.212;27.932;2023-09-18T15:45:19;6.70;;;4.35;;
40993;SDS011;26722;43.212;27.932;2023-09-18T15:47:45;6.70;;;4.10;;
40993;SDS011;26722;43.212;27.932;2023-09-18T15:50:11;10.60;;;3.95;;
40993;SDS011;26722;43.212;27.932;2023-09-18T15:52:37;10.25;;;4.20;;
40993;SDS011;26722;43.212;27.932;2023-09-18T15:55:03;8.80;;;4.15;;
40993;SDS011;26722;43.212;27.932;2023-09-18T15:57:31;9.23;;;4.45;;
40993;SDS011;26722;43.212;27.932;2023-09-18T15:59:58;7.97;;;3.85;;
40993;SDS011;26722;43.212;27.932;2023-09-18T16:02:33;6.72;;;3.72;;
40993;SDS011;26722;43.212;27.932;2023-09-18T16:05:00;7.65;;;4.10;;
40993;SDS011;26722;43.212;27.932;2023-09-18T16:07:29;9.73;;;4.38;;
40993;SDS011;26722;43.212;27.932;2023-09-18T16:09:55;8.70;;;4.50;;
40993;SDS011;26722;43.212;27.932;2023-09-18T16:12:22;7.65;;;4.53;;
40993;SDS011;26722;43.212;27.932;2023-09-18T16:14:48;8.43;;;3.95;;
40993;SDS011;26722;43.212;27.932;2023-09-18T16:17:14;7.88;;;3.83;;
40993;SDS011;26722;43.212;27.932;2023-09-18T16:19:39;7.53;;;4.45;;
40993;SDS011;26722;43.212;27.932;2023-09-18T16:22:04;7.35;;;4.40;;
40993;SDS011;26722;43.212;27.932;2023-09-18T16:24:30;7.45;;;4.20;;
40993;SDS011;26722;43.212;27.932;2023-09-18T16:26:56;9.05;;;4.57;;
40993;SDS011;26722;43.212;27.932;2023-09-18T16:29:25;11.35;;;4.60;;
40993;SDS011;26722;43.212;27.932;2023-09-18T16:31:51;7.88;;;4.32;;
40993;SDS011;26722;43.212;27.932;2023-09-18T16:34:17;9.00;;;4.40;;
40993;SDS011;26722;43.212;27.932;2023-09-18T16:36:43;9.52;;;4.38;;
40993;SDS011;26722;43.212;27.932;2023-09-18T16:39:08;7.07;;;4.30;;
40993;SDS011;26722;43.212;27.932;2023-09-18T16:41:34;9.43;;;5.00;;
40993;SDS011;26722;43.212;27.932;2023-09-18T16:43:59;8.07;;;4.25;;
40993;SDS011;26722;43.212;27.932;2023-09-18T16:46:27;7.28;;;4.60;;
40993;SDS011;26722;43.212;27.932;2023-09-18T16:48:52;7.30;;;4.20;;
40993;SDS011;26722;43.212;27.932;2023-09-18T16:51:18;8.80;;;4.50;;
40993;SDS011;26722;43.212;27.932;2023-09-18T16:53:44;8.38;;;4.75;;